createdAt,value
2018-10-09T00:00:46.936Z,25.50
2018-10-09T00:03:49.882Z,27.40
2018-10-09T00:06:52.812Z,26.20
2018-10-09T00:09:55.897Z,29.90
2018-10-09T00:12:59.298Z,30.20
2018-10-09T00:16:02.522Z,19.27
2018-10-09T00:19:06.086Z,24.33
2018-10-09T00:22:09.316Z,29.83
2018-10-09T00:25:13.240Z,23.63
2018-10-09T00:28:17.611Z,19.27
2018-10-09T00:31:20.688Z,28.17
2018-10-09T00:34:24.374Z,27.40
2018-10-09T00:37:27.145Z,23.03
2018-10-09T00:40:30.556Z,28.07
2018-10-09T00:43:33.386Z,16.87
2018-10-09T00:46:36.763Z,20.43
2018-10-09T00:49:39.748Z,29.00
2018-10-09T00:52:42.792Z,21.07
2018-10-09T00:55:45.655Z,28.47
2018-10-09T00:58:49.343Z,31.00
2018-10-09T01:01:52.336Z,19.93
2018-10-09T01:04:55.373Z,26.07
2018-10-09T01:07:58.240Z,25.67
2018-10-09T01:11:01.184Z,27.67
2018-10-09T01:14:04.336Z,32.07
2018-10-09T01:17:07.495Z,30.27
2018-10-09T01:20:10.326Z,30.73
2018-10-09T01:23:13.474Z,24.30
2018-10-09T01:26:16.490Z,23.23
2018-10-09T01:29:20.064Z,19.57
2018-10-09T01:32:22.861Z,20.00
2018-10-09T01:35:25.660Z,27.13
2018-10-09T01:38:28.580Z,23.50
2018-10-09T01:41:31.621Z,30.80
2018-10-09T01:44:35.154Z,21.87
2018-10-09T01:47:38.096Z,27.83
2018-10-09T01:50:41.056Z,25.80
2018-10-09T01:53:44.222Z,25.13
2018-10-09T01:56:47.199Z,34.33
2018-10-09T01:59:51.120Z,28.13
2018-10-09T02:02:54.195Z,29.63
2018-10-09T02:05:58.116Z,29.33
2018-10-09T02:09:00.963Z,28.43
2018-10-09T02:12:03.961Z,25.77
2018-10-09T02:15:07.384Z,26.77
2018-10-09T02:18:10.524Z,27.00
2018-10-09T02:21:14.160Z,28.97
2018-10-09T02:24:16.955Z,28.03
2018-10-09T02:27:19.894Z,24.83
2018-10-09T02:30:23.382Z,31.50
2018-10-09T02:33:26.335Z,23.87
2018-10-09T02:36:29.330Z,24.20
2018-10-09T02:39:32.557Z,23.60
2018-10-09T02:42:35.901Z,34.20
2018-10-09T02:45:39.035Z,31.47
2018-10-09T02:48:42.105Z,25.73
2018-10-09T02:51:45.976Z,24.80
2018-10-09T02:54:51.184Z,35.83
2018-10-09T02:57:54.498Z,35.17
2018-10-09T03:00:58.154Z,25.53
2018-10-09T03:04:01.246Z,23.73
2018-10-09T03:07:05.406Z,35.27
2018-10-09T03:10:08.544Z,34.17
2018-10-09T03:13:12.131Z,30.20
2018-10-09T03:16:15.699Z,30.27
2018-10-09T03:19:18.865Z,22.77
2018-10-09T03:22:22.357Z,26.60
2018-10-09T03:25:26.998Z,36.13
2018-10-09T03:28:30.766Z,35.50
2018-10-09T03:31:34.797Z,27.03
2018-10-09T03:34:40.748Z,32.60
2018-10-09T03:37:47.961Z,32.90
2018-10-09T03:40:51.506Z,33.57
2018-10-09T03:43:55.521Z,27.57
2018-10-09T03:46:58.710Z,31.20
2018-10-09T03:50:02.456Z,34.07
2018-10-09T03:53:05.249Z,29.63
2018-10-09T03:56:08.084Z,27.93
2018-10-09T03:59:10.855Z,25.87
2018-10-09T04:02:13.576Z,33.37
2018-10-09T04:05:16.968Z,32.00
2018-10-09T04:08:21.241Z,30.70
2018-10-09T04:11:23.926Z,33.67
2018-10-09T04:14:26.616Z,22.77
2018-10-09T04:17:29.244Z,22.23
2018-10-09T04:20:31.954Z,28.23
2018-10-09T04:23:35.176Z,30.20
2018-10-09T04:26:37.836Z,32.57
2018-10-09T04:29:40.517Z,39.17
2018-10-09T04:32:43.355Z,38.30
2018-10-09T04:35:47.125Z,34.63
2018-10-09T04:38:50.411Z,28.13
2018-10-09T04:41:53.190Z,33.20
2018-10-09T04:44:56.136Z,36.43
2018-10-09T04:48:00.134Z,34.83
2018-10-09T04:51:05.682Z,30.43
2018-10-09T04:54:08.464Z,34.47
2018-10-09T04:57:12.208Z,47.60
2018-10-09T05:00:15.087Z,27.50
2018-10-09T05:03:18.464Z,34.23
2018-10-09T05:06:21.458Z,27.73
2018-10-09T05:09:29.883Z,33.00
2018-10-09T05:12:33.829Z,31.80
2018-10-09T05:15:36.799Z,31.53
2018-10-09T05:18:39.691Z,33.27
2018-10-09T05:21:42.520Z,31.63
2018-10-09T05:24:45.421Z,29.83
2018-10-09T05:27:48.698Z,39.37
2018-10-09T05:30:51.643Z,37.77
2018-10-09T05:33:54.500Z,40.10
2018-10-09T05:36:58.979Z,29.43
2018-10-09T05:40:01.969Z,31.63
2018-10-09T05:43:06.233Z,36.60
2018-10-09T05:46:09.230Z,36.17
2018-10-09T05:49:15.332Z,31.17
2018-10-09T05:52:19.042Z,31.63
2018-10-09T05:55:23.240Z,29.43
2018-10-09T05:58:30.510Z,28.67
2018-10-09T06:01:33.845Z,36.97
2018-10-09T06:04:37.087Z,29.97
2018-10-09T06:07:40.472Z,41.73
2018-10-09T06:10:43.465Z,37.13
2018-10-09T06:13:47.563Z,35.50
2018-10-09T06:16:51.015Z,30.43
2018-10-09T06:19:53.840Z,35.23
2018-10-09T06:23:05.170Z,33.17
2018-10-09T06:26:09.334Z,37.63
2018-10-09T06:29:13.311Z,40.33
2018-10-09T06:32:16.316Z,30.00
2018-10-09T06:35:20.152Z,29.17
2018-10-09T06:38:23.205Z,33.83
2018-10-09T06:41:26.638Z,36.40
2018-10-09T06:44:30.388Z,26.80
2018-10-09T06:47:35.065Z,33.30
2018-10-09T06:50:38.603Z,30.73
2018-10-09T06:53:41.777Z,41.97
2018-10-09T06:56:48.396Z,34.07
2018-10-09T06:59:51.487Z,30.70
2018-10-09T07:02:54.545Z,28.50
2018-10-09T07:05:58.612Z,29.17
2018-10-09T07:09:05.236Z,33.27
2018-10-09T07:12:08.597Z,35.67
2018-10-09T07:15:12.674Z,39.67
2018-10-09T07:18:16.639Z,32.40
2018-10-09T07:21:19.760Z,35.50
2018-10-09T07:24:23.109Z,26.40
2018-10-09T07:27:26.706Z,34.00
2018-10-09T07:30:30.218Z,36.93
2018-10-09T07:33:33.880Z,38.93
2018-10-09T07:36:37.204Z,30.67
2018-10-09T07:39:40.769Z,35.53
2018-10-09T07:42:46.484Z,31.47
2018-10-09T07:45:49.484Z,20.77
2018-10-09T07:48:52.637Z,27.70
2018-10-09T07:51:55.743Z,28.77
2018-10-09T07:54:59.027Z,28.47
2018-10-09T07:58:03.065Z,37.17
2018-10-09T08:01:06.590Z,31.60
2018-10-09T08:04:09.776Z,26.20
2018-10-09T08:07:14.746Z,32.87
2018-10-09T08:10:18.192Z,35.37
2018-10-09T08:13:21.315Z,37.80
2018-10-09T08:16:25.181Z,24.43
2018-10-09T08:19:28.377Z,29.57
2018-10-09T08:22:34.805Z,30.90
2018-10-09T08:25:44.803Z,30.83
2018-10-09T08:28:52.798Z,34.03
2018-10-09T08:32:05.963Z,27.83
2018-10-09T08:35:13.586Z,25.67
2018-10-09T08:41:52.904Z,33.73
2018-10-09T08:51:39.248Z,26.53
2018-10-09T08:54:55.516Z,25.17
2018-10-09T08:57:59.857Z,24.70
2018-10-09T09:08:02.522Z,34.07
2018-10-09T09:11:15.789Z,35.07
2018-10-09T09:14:29.921Z,32.10
2018-10-09T09:17:39.628Z,15.90
2018-10-09T09:20:44.542Z,21.77
2018-10-09T09:23:56.403Z,27.40
2018-10-09T09:33:57.204Z,26.43
2018-10-09T09:37:07.320Z,17.80
2018-10-09T09:40:11.319Z,23.93
2018-10-09T09:52:55.441Z,24.57
2018-10-09T09:59:13.653Z,22.70
2018-10-09T10:02:18.028Z,23.97
2018-10-09T10:05:21.960Z,17.83
2018-10-09T10:08:29.965Z,20.83
2018-10-09T10:11:36.068Z,20.03
2018-10-09T10:14:44.000Z,20.63
2018-10-09T10:17:55.973Z,22.30
2018-10-09T10:21:00.570Z,21.30
2018-10-09T10:24:05.815Z,23.93
2018-10-09T10:27:10.405Z,18.23
2018-10-09T10:30:17.364Z,24.43
2018-10-09T10:33:20.517Z,28.03
2018-10-09T10:36:23.516Z,21.55
2018-10-09T10:39:28.818Z,17.50
2018-10-09T10:42:33.804Z,15.47
2018-10-09T10:45:38.443Z,25.23
2018-10-09T10:48:55.234Z,24.93
2018-10-09T10:51:59.008Z,33.03
2018-10-09T10:55:04.863Z,20.95
2018-10-09T10:58:09.776Z,16.95
2018-10-09T11:01:16.892Z,24.20
2018-10-09T11:04:23.259Z,17.70
2018-10-09T11:07:27.398Z,20.23
2018-10-09T11:10:33.817Z,16.33
2018-10-09T11:13:36.957Z,17.93
2018-10-09T11:16:40.998Z,15.60
2018-10-09T11:19:45.120Z,11.48
2018-10-09T11:22:51.740Z,16.03
2018-10-09T11:25:55.562Z,22.87
2018-10-09T11:28:59.558Z,13.35
2018-10-09T11:32:03.923Z,20.13
2018-10-09T11:35:07.872Z,22.20
2018-10-09T11:38:12.731Z,16.45
2018-10-09T11:41:15.936Z,20.08
2018-10-09T11:44:22.070Z,13.68
2018-10-09T11:47:25.274Z,14.90
2018-10-09T11:50:28.382Z,17.90
2018-10-09T11:53:37.859Z,13.20
2018-10-09T11:56:44.743Z,12.93
2018-10-09T11:59:47.669Z,17.17
2018-10-09T12:02:50.865Z,17.37
2018-10-09T12:05:56.177Z,18.25
2018-10-09T12:08:59.549Z,15.95
2018-10-09T12:12:04.834Z,16.12
2018-10-09T12:15:08.168Z,15.28
2018-10-09T12:18:11.006Z,14.60
2018-10-09T12:21:16.472Z,14.63
2018-10-09T12:24:19.367Z,14.98
2018-10-09T12:27:23.660Z,11.97
2018-10-09T12:30:27.101Z,13.88
2018-10-09T12:33:29.915Z,14.58
2018-10-09T12:36:33.426Z,19.45
2018-10-09T12:39:36.512Z,12.35
2018-10-09T12:42:39.593Z,15.00
2018-10-09T12:45:42.539Z,13.53
2018-10-09T12:48:45.553Z,11.22
2018-10-09T12:51:48.453Z,22.67
2018-10-09T13:01:12.452Z,14.15
2018-10-09T13:04:16.268Z,14.58
2018-10-09T13:07:23.961Z,21.23
2018-10-09T13:10:26.876Z,16.23
2018-10-09T13:13:30.340Z,15.48
2018-10-09T13:16:33.542Z,16.70
2018-10-09T13:19:36.610Z,12.73
2018-10-09T13:22:40.503Z,18.57
2018-10-09T13:25:43.869Z,21.73
2018-10-09T13:28:48.480Z,21.73
2018-10-09T13:31:52.643Z,15.18
2018-10-09T13:34:56.005Z,17.30
2018-10-09T13:37:59.138Z,15.00
2018-10-09T13:41:03.299Z,19.57
2018-10-09T13:44:07.557Z,13.72
2018-10-09T13:47:10.462Z,14.43
2018-10-09T13:50:13.436Z,13.30
2018-10-09T13:53:16.325Z,14.07
2018-10-09T13:56:19.179Z,13.13
2018-10-09T13:59:24.291Z,11.45
2018-10-09T14:02:27.418Z,12.78
2018-10-09T14:05:30.485Z,14.43
2018-10-09T14:08:33.544Z,13.18
2018-10-09T14:11:36.557Z,19.00
2018-10-09T14:14:39.502Z,21.15
2018-10-09T14:18:01.535Z,21.50
2018-10-09T14:21:05.498Z,17.75
2018-10-09T14:24:08.706Z,16.65
2018-10-09T14:27:13.010Z,12.47
2018-10-09T14:30:16.568Z,10.80
2018-10-09T14:33:19.376Z,15.32
2018-10-09T14:36:22.660Z,18.82
2018-10-09T14:39:26.033Z,15.75
2018-10-09T14:42:28.898Z,12.83
2018-10-09T14:45:31.820Z,12.60
2018-10-09T14:48:34.769Z,12.00
2018-10-09T14:51:38.487Z,11.20
2018-10-09T14:54:41.362Z,11.25
2018-10-09T14:57:47.952Z,16.20
2018-10-09T15:00:51.327Z,14.55
2018-10-09T15:03:54.260Z,13.43
2018-10-09T15:06:57.062Z,9.23
2018-10-09T15:10:00.095Z,9.48
2018-10-09T15:13:03.020Z,14.65
2018-10-09T15:16:06.560Z,16.35
2018-10-09T15:19:09.860Z,16.40
2018-10-09T15:22:12.720Z,15.18
2018-10-09T15:25:15.522Z,18.63
2018-10-09T15:28:18.401Z,17.42
2018-10-09T15:31:22.202Z,17.67
2018-10-09T15:34:25.609Z,12.73
2018-10-09T15:40:46.248Z,18.05
2018-10-09T15:43:49.588Z,20.75
2018-10-09T15:46:52.788Z,23.33
2018-10-09T15:49:55.972Z,12.20
2018-10-09T15:52:58.988Z,17.70
2018-10-09T15:56:02.084Z,14.57
2018-10-09T15:59:10.804Z,13.10
2018-10-09T16:02:13.746Z,21.17
2018-10-09T16:05:16.951Z,14.73
2018-10-09T16:22:33.860Z,15.43
2018-10-09T16:25:37.131Z,14.87
2018-10-09T16:28:40.986Z,16.93
2018-10-09T16:31:43.775Z,10.00
2018-10-09T16:34:46.484Z,21.40
2018-10-09T16:37:49.982Z,17.50
2018-10-09T16:40:52.878Z,18.33
2018-10-09T16:43:56.398Z,22.27
2018-10-09T16:47:03.700Z,15.80
2018-10-09T16:50:06.724Z,11.90
2018-10-09T16:53:09.605Z,14.13
2018-10-09T16:56:12.654Z,15.60
2018-10-09T16:59:15.843Z,10.77
2018-10-09T17:02:19.531Z,20.20
2018-10-09T17:05:22.565Z,13.63
2018-10-09T17:08:26.060Z,12.53
2018-10-09T17:11:29.911Z,16.53
2018-10-09T17:14:33.689Z,21.43
2018-10-09T17:17:37.925Z,14.33
2018-10-09T17:20:44.732Z,19.40
2018-10-09T17:23:48.241Z,13.93
2018-10-09T17:26:53.151Z,16.63
2018-10-09T17:29:56.280Z,18.57
2018-10-09T17:32:59.384Z,13.53
2018-10-09T17:36:03.482Z,12.57
2018-10-09T17:39:10.550Z,20.27
2018-10-09T17:42:15.111Z,16.10
2018-10-09T17:45:18.492Z,16.57
2018-10-09T17:48:22.654Z,17.77
2018-10-09T17:51:25.762Z,22.23
2018-10-09T17:54:28.652Z,16.97
2018-10-09T17:57:31.704Z,16.70
2018-10-09T18:00:36.629Z,14.97
2018-10-09T18:03:40.612Z,15.33
2018-10-09T18:06:45.401Z,19.83
2018-10-09T18:09:48.780Z,18.37
2018-10-09T18:12:52.740Z,20.93
2018-10-09T18:15:56.790Z,19.83
2018-10-09T18:19:08.493Z,23.80
2018-10-09T18:22:11.638Z,19.37
2018-10-09T18:25:15.202Z,25.13
2018-10-09T18:28:19.148Z,20.10
2018-10-09T18:31:22.572Z,18.80
2018-10-09T18:34:26.754Z,13.87
2018-10-09T18:37:29.642Z,15.43
2018-10-09T18:40:33.715Z,15.90
2018-10-09T18:43:37.177Z,24.60
2018-10-09T18:46:41.717Z,20.33
2018-10-09T18:49:45.602Z,15.03
2018-10-09T18:52:49.374Z,15.47
2018-10-09T18:55:53.184Z,20.33
2018-10-09T18:58:56.575Z,22.73
2018-10-09T19:01:59.506Z,19.30
2018-10-09T19:05:02.505Z,15.37
2018-10-09T19:08:07.281Z,13.80
2018-10-09T19:11:10.196Z,20.80
2018-10-09T19:14:13.464Z,16.43
2018-10-09T19:17:16.509Z,20.80
2018-10-09T19:20:19.401Z,21.50
2018-10-09T19:23:27.986Z,17.23
2018-10-09T19:26:32.340Z,23.30
2018-10-09T19:29:37.232Z,18.37
2018-10-09T19:32:40.905Z,23.10
2018-10-09T19:35:43.916Z,13.60
2018-10-09T19:38:47.090Z,18.53
2018-10-09T19:41:50.469Z,15.93
2018-10-09T19:44:54.788Z,18.30
2018-10-09T19:47:58.660Z,11.83
2018-10-09T19:51:01.782Z,18.27
2018-10-09T19:54:17.853Z,17.33
2018-10-09T19:57:21.137Z,14.17
2018-10-09T20:00:25.435Z,18.33
2018-10-09T20:03:28.328Z,14.43
2018-10-09T20:06:31.438Z,21.70
2018-10-09T20:09:34.178Z,19.33
2018-10-09T20:12:36.932Z,17.47
2018-10-09T20:15:39.679Z,14.27
2018-10-09T20:18:42.564Z,17.90
2018-10-09T20:21:45.416Z,15.40
2018-10-09T20:24:48.195Z,13.90
2018-10-09T20:27:50.996Z,17.67
2018-10-09T20:30:53.754Z,16.07
2018-10-09T20:33:56.621Z,17.93
2018-10-09T20:36:59.392Z,16.53
2018-10-09T20:40:02.851Z,15.07
2018-10-09T20:43:06.593Z,16.47
2018-10-09T20:46:09.350Z,17.50
2018-10-09T20:49:12.190Z,19.87
2018-10-09T20:52:21.295Z,26.83
2018-10-09T20:55:31.717Z,17.47
2018-10-09T20:58:35.922Z,18.33
2018-10-09T21:01:38.640Z,19.17
2018-10-09T21:04:41.426Z,20.73
2018-10-09T21:07:44.223Z,15.53
2018-10-09T21:10:46.923Z,22.37
2018-10-09T21:13:50.593Z,15.90
2018-10-09T21:16:53.376Z,17.97
2018-10-09T21:19:56.109Z,18.13
2018-10-09T21:22:58.965Z,27.90
2018-10-09T21:26:01.690Z,13.13
2018-10-09T21:29:04.376Z,13.60
2018-10-09T21:32:07.177Z,12.83
2018-10-09T21:35:09.991Z,14.90
2018-10-09T21:38:12.879Z,17.00
2018-10-09T21:41:15.610Z,18.13
2018-10-09T21:44:18.371Z,13.70
2018-10-09T21:47:21.096Z,16.27
2018-10-09T21:50:23.978Z,18.43
2018-10-09T21:53:27.361Z,18.70
2018-10-09T21:56:30.160Z,23.23
2018-10-09T21:59:32.863Z,14.47
2018-10-09T22:02:35.636Z,21.63
2018-10-09T22:05:38.360Z,19.67
2018-10-09T22:08:51.534Z,17.30
2018-10-09T22:11:54.334Z,16.63
2018-10-09T22:14:57.095Z,23.67
2018-10-09T22:17:59.858Z,19.93
2018-10-09T22:21:03.100Z,15.00
2018-10-09T22:24:05.937Z,26.17
2018-10-09T22:27:08.694Z,17.73
2018-10-09T22:30:13.481Z,25.87
2018-10-09T22:33:16.198Z,22.97
2018-10-09T22:36:18.881Z,24.67
2018-10-09T22:39:21.668Z,20.47
2018-10-09T22:42:24.402Z,21.07
2018-10-09T22:45:27.191Z,17.40
2018-10-09T22:48:29.966Z,19.20
2018-10-09T22:51:32.665Z,16.33
2018-10-09T22:54:35.454Z,22.97
2018-10-09T22:57:38.227Z,21.47
2018-10-09T23:00:40.952Z,19.13
2018-10-09T23:03:43.930Z,17.10
2018-10-09T23:06:46.743Z,9.30
2018-10-09T23:09:49.446Z,24.00
2018-10-09T23:12:52.210Z,18.07
2018-10-09T23:15:54.999Z,20.03
2018-10-09T23:18:57.967Z,14.17
2018-10-09T23:22:00.651Z,20.60
2018-10-09T23:25:04.032Z,25.10
2018-10-09T23:28:06.934Z,24.60
2018-10-09T23:31:09.706Z,21.10
2018-10-09T23:34:12.284Z,17.70
2018-10-09T23:37:14.840Z,21.83
2018-10-09T23:40:17.733Z,14.80
2018-10-09T23:43:20.334Z,22.87
2018-10-09T23:46:22.921Z,23.03
2018-10-09T23:49:25.530Z,17.87
2018-10-09T23:52:28.071Z,22.97
2018-10-09T23:55:30.722Z,19.37
2018-10-09T23:58:33.323Z,26.23
